sensor_id;sensor_type;location;lat;lon;timestamp;pressure;altitude;pressure_sealevel;temperature;humidity
72262;BME280;60173;52.112;8.648;2022-12-18T00:01:29;101989.41;;;-7.85;89.40
72262;BME280;60173;52.112;8.648;2022-12-18T00:03:56;101987.03;;;-7.88;89.33
72262;BME280;60173;52.112;8.648;2022-12-18T00:06:25;101991.34;;;-7.87;89.49
72262;BME280;60173;52.112;8.648;2022-12-18T00:08:53;101986.63;;;-7.83;89.45
72262;BME280;60173;52.112;8.648;2022-12-18T00:11:22;101989.13;;;-7.82;89.20
72262;BME280;60173;52.112;8.648;2022-12-18T00:13:49;101984.69;;;-7.91;89.25
72262;BME280;60173;52.112;8.648;2022-12-18T00:16:20;101986.91;;;-7.86;89.08
72262;BME280;60173;52.112;8.648;2022-12-18T00:18:50;101975.25;;;-7.93;88.96
72262;BME280;60173;52.112;8.648;2022-12-18T00:21:19;101981.06;;;-7.90;89.20
72262;BME280;60173;52.112;8.648;2022-12-18T00:23:46;101982.88;;;-7.90;89.39
72262;BME280;60173;52.112;8.648;2022-12-18T00:26:37;101984.69;;;-7.91;89.28
72262;BME280;60173;52.112;8.648;2022-12-18T00:29:15;101990.81;;;-7.81;89.40
72262;BME280;60173;52.112;8.648;2022-12-18T00:31:42;101998.44;;;-7.78;89.07
72262;BME280;60173;52.112;8.648;2022-12-18T00:34:11;102009.66;;;-7.76;88.94
72262;BME280;60173;52.112;8.648;2022-12-18T00:36:38;101998.13;;;-7.84;89.08
72262;BME280;60173;52.112;8.648;2022-12-18T00:39:05;101991.34;;;-7.87;89.02
72262;BME280;60173;52.112;8.648;2022-12-18T00:41:31;101985.09;;;-7.86;88.93
72262;BME280;60173;52.112;8.648;2022-12-18T00:43:58;101991.09;;;-7.84;88.70
72262;BME280;60173;52.112;8.648;2022-12-18T00:46:24;101986.19;;;-7.79;88.68
72262;BME280;60173;52.112;8.648;2022-12-18T00:48:50;101985.66;;;-7.82;88.55
72262;BME280;60173;52.112;8.648;2022-12-18T00:51:17;101988.28;;;-7.82;88.65
72262;BME280;60173;52.112;8.648;2022-12-18T00:53:43;101986.91;;;-7.86;88.28
72262;BME280;60173;52.112;8.648;2022-12-18T00:56:09;101983.16;;;-7.93;88.57
72262;BME280;60173;52.112;8.648;2022-12-18T00:58:36;101982.31;;;-7.94;88.68
72262;BME280;60173;52.112;8.648;2022-12-18T01:01:04;101974.13;;;-7.91;88.94
72262;BME280;60173;52.112;8.648;2022-12-18T01:03:31;101973.44;;;-7.83;88.81
72262;BME280;60173;52.112;8.648;2022-12-18T01:05:57;101984.81;;;-7.83;88.98
72262;BME280;60173;52.112;8.648;2022-12-18T01:08:24;101990.91;;;-7.73;88.46
72262;BME280;60173;52.112;8.648;2022-12-18T01:10:50;101990.91;;;-7.73;88.27
72262;BME280;60173;52.112;8.648;2022-12-18T01:13:16;101990.25;;;-7.75;88.23
72262;BME280;60173;52.112;8.648;2022-12-18T01:15:50;101983.28;;;-7.76;88.19
72262;BME280;60173;52.112;8.648;2022-12-18T01:18:16;101985.53;;;-7.81;88.12
72262;BME280;60173;52.112;8.648;2022-12-18T01:20:43;101980.50;;;-7.74;88.19
72262;BME280;60173;52.112;8.648;2022-12-18T01:23:09;101986.19;;;-7.79;88.15
72262;BME280;60173;52.112;8.648;2022-12-18T01:25:36;101978.16;;;-7.77;88.21
72262;BME280;60173;52.112;8.648;2022-12-18T01:28:02;101972.19;;;-7.79;87.99
72262;BME280;60173;52.112;8.648;2022-12-18T01:30:29;101974.78;;;-7.69;87.79
72262;BME280;60173;52.112;8.648;2022-12-18T01:32:55;101976.34;;;-7.77;87.51
72262;BME280;60173;52.112;8.648;2022-12-18T01:35:21;101974.66;;;-7.58;87.49
72262;BME280;60173;52.112;8.648;2022-12-18T01:37:48;101985.78;;;-7.74;87.37
72262;BME280;60173;52.112;8.648;2022-12-18T01:40:14;101982.88;;;-7.81;87.72
72262;BME280;60173;52.112;8.648;2022-12-18T01:42:41;101988.56;;;-7.76;88.16
72262;BME280;60173;52.112;8.648;2022-12-18T01:53:17;101995.50;;;-7.84;88.00
72262;BME280;60173;52.112;8.648;2022-12-18T01:55:57;101989.94;;;-7.81;87.86
72262;BME280;60173;52.112;8.648;2022-12-18T01:58:32;101993.84;;;-7.85;87.75
72262;BME280;60173;52.112;8.648;2022-12-18T02:01:00;101988.00;;;-7.79;88.05
72262;BME280;60173;52.112;8.648;2022-12-18T02:03:26;101986.06;;;-7.77;88.07
72262;BME280;60173;52.112;8.648;2022-12-18T02:06:13;101982.19;;;-7.83;88.35
72262;BME280;60173;52.112;8.648;2022-12-18T02:09:03;101986.78;;;-7.75;88.16
72262;BME280;60173;52.112;8.648;2022-12-18T02:11:41;101989.53;;;-7.77;88.47
72262;BME280;60173;52.112;8.648;2022-12-18T02:14:24;101990.53;;;-7.78;88.18
72262;BME280;60173;52.112;8.648;2022-12-18T02:17:03;101986.22;;;-7.69;88.27
72262;BME280;60173;52.112;8.648;2022-12-18T02:22:26;101982.44;;;-7.76;87.98
72262;BME280;60173;52.112;8.648;2022-12-18T02:25:05;101984.81;;;-7.83;87.99
72262;BME280;60173;52.112;8.648;2022-12-18T02:27:37;101989.53;;;-7.77;88.16
72262;BME280;60173;52.112;8.648;2022-12-18T02:30:06;101989.53;;;-7.77;87.92
72262;BME280;60173;52.112;8.648;2022-12-18T02:32:38;101985.94;;;-7.85;87.83
72262;BME280;60173;52.112;8.648;2022-12-18T02:35:09;101992.44;;;-7.99;87.93
72262;BME280;60173;52.112;8.648;2022-12-18T02:37:39;101974.00;;;-7.89;88.41
72262;BME280;60173;52.112;8.648;2022-12-18T02:40:08;101970.22;;;-7.87;88.35
72262;BME280;60173;52.112;8.648;2022-12-18T02:42:34;101970.81;;;-7.83;88.23
72262;BME280;60173;52.112;8.648;2022-12-18T02:45:01;101969.41;;;-7.87;87.95
72262;BME280;60173;52.112;8.648;2022-12-18T02:47:30;101969.16;;;-7.94;88.10
72262;BME280;60173;52.112;8.648;2022-12-18T02:50:59;101977.47;;;-7.89;88.21
72262;BME280;60173;52.112;8.648;2022-12-18T02:56:03;101977.91;;;-8.03;87.98
72262;BME280;60173;52.112;8.648;2022-12-18T02:58:56;101977.06;;;-8.04;88.19
72262;BME280;60173;52.112;8.648;2022-12-18T03:01:33;101976.63;;;-8.09;88.24
72262;BME280;60173;52.112;8.648;2022-12-18T03:04:18;101983.88;;;-8.01;88.67
72262;BME280;60173;52.112;8.648;2022-12-18T03:06:50;101983.16;;;-8.03;88.73
72262;BME280;60173;52.112;8.648;2022-12-18T03:09:36;101990.38;;;-8.05;88.72
72262;BME280;60173;52.112;8.648;2022-12-18T03:12:14;101994.28;;;-8.09;88.64
72262;BME280;60173;52.112;8.648;2022-12-18T03:14:43;101983.56;;;-8.18;88.86
72262;BME280;60173;52.112;8.648;2022-12-18T03:17:14;101995.22;;;-8.10;89.53
72262;BME280;60173;52.112;8.648;2022-12-18T03:19:42;101997.72;;;-7.99;89.46
72262;BME280;60173;52.112;8.648;2022-12-18T03:22:10;101989.81;;;-7.99;89.33
72262;BME280;60173;52.112;8.648;2022-12-18T03:24:37;101977.19;;;-7.96;89.20
72262;BME280;60173;52.112;8.648;2022-12-18T03:27:07;101976.63;;;-7.99;89.11
72262;BME280;60173;52.112;8.648;2022-12-18T03:29:48;101982.19;;;-7.92;89.24
72262;BME280;60173;52.112;8.648;2022-12-18T03:32:24;101983.41;;;-7.87;89.30
72262;BME280;60173;52.112;8.648;2022-12-18T03:34:53;101980.41;;;-7.92;89.24
72262;BME280;60173;52.112;8.648;2022-12-18T03:37:23;101978.84;;;-7.85;89.14
72262;BME280;60173;52.112;8.648;2022-12-18T03:39:50;101973.56;;;-7.85;89.03
72262;BME280;60173;52.112;8.648;2022-12-18T03:42:29;101961.78;;;-7.81;88.91
72262;BME280;60173;52.112;8.648;2022-12-18T03:45:09;101968.56;;;-7.78;88.92
72262;BME280;60173;52.112;8.648;2022-12-18T03:50:21;101989.84;;;-7.89;88.49
72262;BME280;60173;52.112;8.648;2022-12-18T03:52:57;101987.47;;;-7.92;88.51
72262;BME280;60173;52.112;8.648;2022-12-18T03:55:28;101982.75;;;-7.89;88.56
72262;BME280;60173;52.112;8.648;2022-12-18T03:57:58;101982.88;;;-8.00;88.74
72262;BME280;60173;52.112;8.648;2022-12-18T04:00:26;101986.91;;;-7.96;88.59
72262;BME280;60173;52.112;8.648;2022-12-18T04:02:54;101982.75;;;-7.89;88.75
72262;BME280;60173;52.112;8.648;2022-12-18T04:05:22;101992.59;;;-7.91;88.41
72262;BME280;60173;52.112;8.648;2022-12-18T04:07:51;101982.31;;;-7.94;88.26
72262;BME280;60173;52.112;8.648;2022-12-18T04:10:18;101983.03;;;-7.92;88.56
72262;BME280;60173;52.112;8.648;2022-12-18T04:12:44;101980.38;;;-8.02;88.33
72262;BME280;60173;52.112;8.648;2022-12-18T04:15:12;101975.97;;;-8.01;88.57
72262;BME280;60173;52.112;8.648;2022-12-18T04:17:46;101977.34;;;-7.97;88.70
72262;BME280;60173;52.112;8.648;2022-12-18T04:20:14;101982.19;;;-8.02;88.68
72262;BME280;60173;52.112;8.648;2022-12-18T04:22:40;101980.66;;;-8.05;88.76
72262;BME280;60173;52.112;8.648;2022-12-18T04:25:07;101974.81;;;-7.99;88.54
72262;BME280;60173;52.112;8.648;2022-12-18T04:27:33;101977.19;;;-7.96;88.88
72262;BME280;60173;52.112;8.648;2022-12-18T04:30:00;101976.50;;;-7.98;89.01
72262;BME280;60173;52.112;8.648;2022-12-18T04:32:26;101991.75;;;-7.82;88.84
72262;BME280;60173;52.112;8.648;2022-12-18T04:34:52;101990.09;;;-7.83;88.69
72262;BME280;60173;52.112;8.648;2022-12-18T04:37:19;101987.19;;;-7.89;88.76
72262;BME280;60173;52.112;8.648;2022-12-18T04:39:45;101992.75;;;-7.92;88.96
72262;BME280;60173;52.112;8.648;2022-12-18T04:42:12;101994.41;;;-7.91;88.91
72262;BME280;60173;52.112;8.648;2022-12-18T04:44:38;102003.28;;;-7.83;89.07
72262;BME280;60173;52.112;8.648;2022-12-18T04:47:04;101994.66;;;-7.85;88.70
72262;BME280;60173;52.112;8.648;2022-12-18T04:49:31;101983.28;;;-7.85;88.87
72262;BME280;60173;52.112;8.648;2022-12-18T04:51:57;101990.53;;;-7.78;89.06
72262;BME280;60173;52.112;8.648;2022-12-18T04:54:23;101989.13;;;-7.82;88.94
72262;BME280;60173;52.112;8.648;2022-12-18T04:56:50;101993.03;;;-7.86;88.87
72262;BME280;60173;52.112;8.648;2022-12-18T04:59:16;101993.72;;;-7.84;88.57
72262;BME280;60173;52.112;8.648;2022-12-18T05:01:42;101992.03;;;-7.85;88.46
72262;BME280;60173;52.112;8.648;2022-12-18T05:04:09;101987.31;;;-7.91;88.41
72262;BME280;60173;52.112;8.648;2022-12-18T05:06:36;101987.03;;;-7.88;88.32
72262;BME280;60173;52.112;8.648;2022-12-18T05:09:03;101990.78;;;-7.90;88.35
72262;BME280;60173;52.112;8.648;2022-12-18T05:11:29;101987.19;;;-7.80;88.34
72262;BME280;60173;52.112;8.648;2022-12-18T05:13:55;101984.25;;;-7.77;87.87
72262;BME280;60173;52.112;8.648;2022-12-18T05:16:22;101987.59;;;-7.75;88.01
72262;BME280;60173;52.112;8.648;2022-12-18T05:18:48;101985.53;;;-7.81;87.44
72262;BME280;60173;52.112;8.648;2022-12-18T05:21:14;101980.25;;;-7.90;87.66
72262;BME280;60173;52.112;8.648;2022-12-18T05:23:41;101980.25;;;-7.90;88.08
72262;BME280;60173;52.112;8.648;2022-12-18T05:26:08;101978.44;;;-8.00;88.18
72262;BME280;60173;52.112;8.648;2022-12-18T05:28:35;101975.66;;;-8.08;88.51
72262;BME280;60173;52.112;8.648;2022-12-18T05:31:04;101968.72;;;-7.99;88.62
72262;BME280;60173;52.112;8.648;2022-12-18T05:33:33;101968.72;;;-7.99;88.70
72262;BME280;60173;52.112;8.648;2022-12-18T05:36:03;101969.16;;;-7.94;88.71
72262;BME280;60173;52.112;8.648;2022-12-18T05:38:31;101986.63;;;-7.93;88.92
72262;BME280;60173;52.112;8.648;2022-12-18T05:40:58;101984.97;;;-7.94;88.77
72262;BME280;60173;52.112;8.648;2022-12-18T05:43:25;101987.47;;;-7.83;88.62
72262;BME280;60173;52.112;8.648;2022-12-18T05:45:53;101978.28;;;-7.79;88.70
72262;BME280;60173;52.112;8.648;2022-12-18T05:48:20;101976.63;;;-7.80;88.41
72262;BME280;60173;52.112;8.648;2022-12-18T05:50:49;101974.69;;;-7.87;88.61
72262;BME280;60173;52.112;8.648;2022-12-18T05:53:18;101969.41;;;-7.97;88.45
72262;BME280;60173;52.112;8.648;2022-12-18T05:55:45;101969.00;;;-8.02;88.65
72262;BME280;60173;52.112;8.648;2022-12-18T05:58:12;101972.91;;;-8.06;88.90
72262;BME280;60173;52.112;8.648;2022-12-18T06:00:41;101976.75;;;-8.10;89.27
72262;BME280;60173;52.112;8.648;2022-12-18T06:03:10;101981.63;;;-8.06;89.39
72262;BME280;60173;52.112;8.648;2022-12-18T06:05:38;101977.34;;;-8.07;89.47
72262;BME280;60173;52.112;8.648;2022-12-18T06:08:04;101979.56;;;-8.02;89.62
72262;BME280;60173;52.112;8.648;2022-12-18T06:10:31;101988.31;;;-7.92;89.33
72262;BME280;60173;52.112;8.648;2022-12-18T06:12:57;101985.50;;;-7.90;89.15
72262;BME280;60173;52.112;8.648;2022-12-18T06:15:24;101990.25;;;-7.94;88.94
72262;BME280;60173;52.112;8.648;2022-12-18T06:17:50;101996.34;;;-7.93;88.92
72262;BME280;60173;52.112;8.648;2022-12-18T06:20:17;101991.34;;;-7.97;88.80
72262;BME280;60173;52.112;8.648;2022-12-18T06:22:43;101999.41;;;-7.98;88.78
72262;BME280;60173;52.112;8.648;2022-12-18T06:25:10;101999.13;;;-7.95;88.80
72262;BME280;60173;52.112;8.648;2022-12-18T06:27:37;101993.03;;;-7.86;88.95
72262;BME280;60173;52.112;8.648;2022-12-18T06:30:04;102002.16;;;-7.90;88.71
72262;BME280;60173;52.112;8.648;2022-12-18T06:32:30;101997.16;;;-7.93;88.77
72262;BME280;60173;52.112;8.648;2022-12-18T06:34:57;102004.13;;;-7.82;89.06
72262;BME280;60173;52.112;8.648;2022-12-18T06:37:23;102008.97;;;-7.78;88.78
72262;BME280;60173;52.112;8.648;2022-12-18T06:39:50;102015.50;;;-7.82;88.73
72262;BME280;60173;52.112;8.648;2022-12-18T06:42:16;102020.22;;;-7.76;88.55
72262;BME280;60173;52.112;8.648;2022-12-18T06:44:42;102017.03;;;-7.79;88.34
72262;BME280;60173;52.112;8.648;2022-12-18T06:47:09;102022.16;;;-7.87;88.55
72262;BME280;60173;52.112;8.648;2022-12-18T06:49:35;102027.56;;;-7.79;88.55
72262;BME280;60173;52.112;8.648;2022-12-18T06:52:01;102032.44;;;-7.75;88.17
72262;BME280;60173;52.112;8.648;2022-12-18T06:54:28;102031.06;;;-7.69;88.13
72262;BME280;60173;52.112;8.648;2022-12-18T06:56:54;102030.19;;;-7.69;87.76
72262;BME280;60173;52.112;8.648;2022-12-18T06:59:20;102028.81;;;-7.74;87.97
72262;BME280;60173;52.112;8.648;2022-12-18T07:01:47;102025.63;;;-7.87;88.19
72262;BME280;60173;52.112;8.648;2022-12-18T07:04:13;102024.78;;;-7.87;88.10
72262;BME280;60173;52.112;8.648;2022-12-18T07:06:40;102028.41;;;-7.88;88.84
72262;BME280;60173;52.112;8.648;2022-12-18T07:09:06;102030.66;;;-7.84;88.67
72262;BME280;60173;52.112;8.648;2022-12-18T07:11:33;102040.63;;;-7.78;88.72
72262;BME280;60173;52.112;8.648;2022-12-18T07:13:59;102041.75;;;-7.80;88.51
72262;BME280;60173;52.112;8.648;2022-12-18T07:16:26;102036.63;;;-7.72;88.45
72262;BME280;60173;52.112;8.648;2022-12-18T07:18:54;102037.28;;;-7.80;88.44
72262;BME280;60173;52.112;8.648;2022-12-18T07:21:21;102026.88;;;-7.81;88.57
72262;BME280;60173;52.112;8.648;2022-12-18T07:23:48;102039.81;;;-7.68;88.80
72262;BME280;60173;52.112;8.648;2022-12-18T07:26:17;102028.53;;;-7.61;88.42
72262;BME280;60173;52.112;8.648;2022-12-18T07:28:44;102030.06;;;-7.58;88.20
72262;BME280;60173;52.112;8.648;2022-12-18T07:31:17;102014.94;;;-7.56;88.29
72262;BME280;60173;52.112;8.648;2022-12-18T07:33:45;102012.97;;;-7.44;88.29
72262;BME280;60173;52.112;8.648;2022-12-18T07:36:12;102010.03;;;-7.41;87.96
72262;BME280;60173;52.112;8.648;2022-12-18T07:38:39;102009.34;;;-7.43;88.05
72262;BME280;60173;52.112;8.648;2022-12-18T07:41:08;102006.00;;;-7.36;87.74
72262;BME280;60173;52.112;8.648;2022-12-18T07:43:36;102013.78;;;-7.34;87.98
72262;BME280;60173;52.112;8.648;2022-12-18T07:46:03;102018.63;;;-7.30;87.61
72262;BME280;60173;52.112;8.648;2022-12-18T07:48:30;102019.44;;;-7.29;87.68
72262;BME280;60173;52.112;8.648;2022-12-18T07:51:05;102025.41;;;-7.17;87.10
72262;BME280;60173;52.112;8.648;2022-12-18T07:53:32;102012.59;;;-7.12;87.24
72262;BME280;60173;52.112;8.648;2022-12-18T07:56:01;102014.56;;;-7.14;87.22
72262;BME280;60173;52.112;8.648;2022-12-18T07:58:47;102017.31;;;-7.06;87.18
72262;BME280;60173;52.112;8.648;2022-12-18T08:01:14;102013.41;;;-7.02;86.94
72262;BME280;60173;52.112;8.648;2022-12-18T08:03:40;102032.03;;;-6.94;86.74
72262;BME280;60173;52.112;8.648;2022-12-18T08:06:09;102028.16;;;-6.99;86.64
72262;BME280;60173;52.112;8.648;2022-12-18T08:08:36;102028.69;;;-6.96;86.62
72262;BME280;60173;52.112;8.648;2022-12-18T08:11:02;102031.84;;;-6.92;86.56
72262;BME280;60173;52.112;8.648;2022-12-18T08:13:29;102029.09;;;-6.91;86.48
72262;BME280;60173;52.112;8.648;2022-12-18T08:18:23;102015.78;;;-6.71;85.90
72262;BME280;60173;52.112;8.648;2022-12-18T08:20:49;102008.25;;;-6.66;85.70
72262;BME280;60173;52.112;8.648;2022-12-18T08:23:15;102007.13;;;-6.64;85.89
72262;BME280;60173;52.112;8.648;2022-12-18T08:25:42;101997.34;;;-6.53;85.45
72262;BME280;60173;52.112;8.648;2022-12-18T08:28:08;101994.94;;;-6.47;84.82
72262;BME280;60173;52.112;8.648;2022-12-18T08:30:35;101992.22;;;-6.37;84.91
72262;BME280;60173;52.112;8.648;2022-12-18T08:33:03;101991.41;;;-6.38;84.82
72262;BME280;60173;52.112;8.648;2022-12-18T08:35:30;101985.50;;;-6.31;84.68
72262;BME280;60173;52.112;8.648;2022-12-18T08:38:03;101976.75;;;-6.14;83.98
72262;BME280;60173;52.112;8.648;2022-12-18T08:40:29;101980.09;;;-6.12;83.78
72262;BME280;60173;52.112;8.648;2022-12-18T08:42:56;101987.94;;;-6.02;83.80
72262;BME280;60173;52.112;8.648;2022-12-18T08:45:22;101985.84;;;-5.91;82.92
72262;BME280;60173;52.112;8.648;2022-12-18T08:47:48;101988.94;;;-5.77;82.97
72262;BME280;60173;52.112;8.648;2022-12-18T08:50:15;101987.84;;;-5.93;82.43
72262;BME280;60173;52.112;8.648;2022-12-18T08:52:41;101987.81;;;-5.75;82.46
72262;BME280;60173;52.112;8.648;2022-12-18T08:55:08;101984.94;;;-5.63;82.01
72262;BME280;60173;52.112;8.648;2022-12-18T08:57:35;101984.75;;;-5.62;81.74
72262;BME280;60173;52.112;8.648;2022-12-18T09:00:01;101979.22;;;-5.51;81.78
72262;BME280;60173;52.112;8.648;2022-12-18T09:02:27;101972.34;;;-5.43;81.43
72262;BME280;60173;52.112;8.648;2022-12-18T09:04:54;101983.59;;;-5.41;81.70
72262;BME280;60173;52.112;8.648;2022-12-18T09:07:23;101972.66;;;-5.47;81.51
72262;BME280;60173;52.112;8.648;2022-12-18T09:09:49;101983.91;;;-5.45;81.64
72262;BME280;60173;52.112;8.648;2022-12-18T09:12:15;101975.00;;;-5.35;81.51
72262;BME280;60173;52.112;8.648;2022-12-18T09:14:42;101982.59;;;-5.14;81.06
72262;BME280;60173;52.112;8.648;2022-12-18T09:17:08;101984.19;;;-4.95;80.42
72262;BME280;60173;52.112;8.648;2022-12-18T09:19:35;101985.03;;;-4.87;80.35
72262;BME280;60173;52.112;8.648;2022-12-18T09:22:01;101985.91;;;-4.78;79.55
72262;BME280;60173;52.112;8.648;2022-12-18T09:24:27;101978.50;;;-4.66;79.00
72262;BME280;60173;52.112;8.648;2022-12-18T09:26:54;101987.13;;;-4.64;78.57
72262;BME280;60173;52.112;8.648;2022-12-18T09:29:23;101979.53;;;-4.59;78.38
72262;BME280;60173;52.112;8.648;2022-12-18T09:31:49;101969.13;;;-4.44;78.18
72262;BME280;60173;52.112;8.648;2022-12-18T09:34:16;101976.72;;;-4.49;78.15
72262;BME280;60173;52.112;8.648;2022-12-18T09:36:42;101977.75;;;-4.50;78.43
72262;BME280;60173;52.112;8.648;2022-12-18T09:39:09;101977.53;;;-4.57;79.02
72262;BME280;60173;52.112;8.648;2022-12-18T09:41:45;101980.75;;;-4.37;78.93
72262;BME280;60173;52.112;8.648;2022-12-18T09:44:25;101980.63;;;-4.27;78.34
72262;BME280;60173;52.112;8.648;2022-12-18T09:49:35;101981.97;;;-3.99;77.57
72262;BME280;60173;52.112;8.648;2022-12-18T09:52:17;101989.09;;;-3.91;77.33
72262;BME280;60173;52.112;8.648;2022-12-18T09:54:56;101988.78;;;-3.96;77.48
72262;BME280;60173;52.112;8.648;2022-12-18T09:57:25;101985.78;;;-3.77;77.02
72262;BME280;60173;52.112;8.648;2022-12-18T10:00:23;101962.91;;;-3.78;76.87
72262;BME280;60173;52.112;8.648;2022-12-18T10:02:59;101971.34;;;-3.66;76.11
72262;BME280;60173;52.112;8.648;2022-12-18T10:08:18;101982.81;;;-3.74;76.51
72262;BME280;60173;52.112;8.648;2022-12-18T10:10:52;101975.84;;;-3.67;76.27
72262;BME280;60173;52.112;8.648;2022-12-18T10:13:31;101977.00;;;-3.69;76.25
72262;BME280;60173;52.112;8.648;2022-12-18T10:18:31;101985.97;;;-3.70;76.26
72262;BME280;60173;52.112;8.648;2022-12-18T10:21:05;101981.47;;;-3.53;75.93
72262;BME280;60173;52.112;8.648;2022-12-18T10:23:58;101968.03;;;-3.52;75.89
72262;BME280;60173;52.112;8.648;2022-12-18T10:26:28;101955.09;;;-3.47;75.83
72262;BME280;60173;52.112;8.648;2022-12-18T10:28:58;101935.34;;;-3.52;75.79
72262;BME280;60173;52.112;8.648;2022-12-18T10:31:31;101920.19;;;-3.35;75.65
72262;BME280;60173;52.112;8.648;2022-12-18T10:33:57;101919.97;;;-3.17;74.26
72262;BME280;60173;52.112;8.648;2022-12-18T10:36:24;101911.91;;;-3.01;73.84
72262;BME280;60173;52.112;8.648;2022-12-18T10:38:51;101903.81;;;-3.08;74.01
72262;BME280;60173;52.112;8.648;2022-12-18T10:43:43;101900.75;;;-2.88;73.98
72262;BME280;60173;52.112;8.648;2022-12-18T10:48:56;101898.63;;;-2.70;73.35
72262;BME280;60173;52.112;8.648;2022-12-18T10:51:31;101904.22;;;-2.57;73.74
72262;BME280;60173;52.112;8.648;2022-12-18T10:54:03;101901.00;;;-2.52;72.05
72262;BME280;60173;52.112;8.648;2022-12-18T10:56:34;101895.28;;;-2.41;72.06
72262;BME280;60173;52.112;8.648;2022-12-18T10:59:01;101894.66;;;-2.43;71.70
72262;BME280;60173;52.112;8.648;2022-12-18T11:01:54;101889.09;;;-2.33;71.24
72262;BME280;60173;52.112;8.648;2022-12-18T11:07:00;101882.78;;;-2.63;71.73
72262;BME280;60173;52.112;8.648;2022-12-18T11:09:29;101877.81;;;-2.66;72.20
72262;BME280;60173;52.112;8.648;2022-12-18T11:11:58;101884.00;;;-2.66;72.38
72262;BME280;60173;52.112;8.648;2022-12-18T11:17:28;101862.00;;;-2.83;72.31
72262;BME280;60173;52.112;8.648;2022-12-18T11:19:57;101853.00;;;-2.82;72.83
72262;BME280;60173;52.112;8.648;2022-12-18T11:22:32;101846.38;;;-2.86;73.07
72262;BME280;60173;52.112;8.648;2022-12-18T11:28:24;101837.25;;;-2.83;73.58
72262;BME280;60173;52.112;8.648;2022-12-18T11:31:17;101845.06;;;-2.90;73.03
72262;BME280;60173;52.112;8.648;2022-12-18T11:33:49;101826.75;;;-2.85;72.86
72262;BME280;60173;52.112;8.648;2022-12-18T11:36:42;101825.66;;;-2.67;72.60
72262;BME280;60173;52.112;8.648;2022-12-18T11:39:15;101817.00;;;-2.69;72.49
72262;BME280;60173;52.112;8.648;2022-12-18T11:41:54;101820.03;;;-2.73;72.28
72262;BME280;60173;52.112;8.648;2022-12-18T11:44:28;101810.00;;;-2.62;71.77
72262;BME280;60173;52.112;8.648;2022-12-18T11:47:05;101815.22;;;-2.69;72.03
72262;BME280;60173;52.112;8.648;2022-12-18T11:49:36;101816.59;;;-2.58;71.51
72262;BME280;60173;52.112;8.648;2022-12-18T11:54:39;101807.81;;;-2.59;71.55
72262;BME280;60173;52.112;8.648;2022-12-18T11:57:31;101806.63;;;-2.56;71.87
72262;BME280;60173;52.112;8.648;2022-12-18T12:00:15;101808.22;;;-2.47;71.66
72262;BME280;60173;52.112;8.648;2022-12-18T12:02:55;101799.16;;;-2.38;71.34
72262;BME280;60173;52.112;8.648;2022-12-18T12:16:37;101772.47;;;-2.30;70.78
72262;BME280;60173;52.112;8.648;2022-12-18T12:22:03;101769.50;;;-2.35;70.50
72262;BME280;60173;52.112;8.648;2022-12-18T12:25:07;101767.22;;;-2.38;70.86
72262;BME280;60173;52.112;8.648;2022-12-18T12:27:50;101762.84;;;-2.31;70.24
72262;BME280;60173;52.112;8.648;2022-12-18T12:30:27;101754.84;;;-2.31;69.84
72262;BME280;60173;52.112;8.648;2022-12-18T12:40:52;101763.44;;;-1.91;68.76
72262;BME280;60173;52.112;8.648;2022-12-18T12:43:46;101768.84;;;-1.99;68.11
72262;BME280;60173;52.112;8.648;2022-12-18T12:46:18;101759.00;;;-1.98;68.62
72262;BME280;60173;52.112;8.648;2022-12-18T12:48:56;101765.81;;;-1.96;68.55
72262;BME280;60173;52.112;8.648;2022-12-18T12:51:28;101759.28;;;-2.08;68.29
72262;BME280;60173;52.112;8.648;2022-12-18T12:53:57;101755.25;;;-2.04;68.34
72262;BME280;60173;52.112;8.648;2022-12-18T12:56:27;101754.88;;;-2.01;68.34
72262;BME280;60173;52.112;8.648;2022-12-18T13:01:52;101772.88;;;-2.03;69.25
72262;BME280;60173;52.112;8.648;2022-12-18T13:09:33;101735.78;;;-2.05;69.13
72262;BME280;60173;52.112;8.648;2022-12-18T13:12:04;101736.16;;;-2.08;69.26
72262;BME280;60173;52.112;8.648;2022-12-18T13:14:39;101736.53;;;-1.96;68.96
72262;BME280;60173;52.112;8.648;2022-12-18T13:17:16;101724.31;;;-2.05;68.70
72262;BME280;60173;52.112;8.648;2022-12-18T13:19:50;101726.25;;;-1.99;69.02
72262;BME280;60173;52.112;8.648;2022-12-18T13:22:30;101727.50;;;-1.95;68.42
72262;BME280;60173;52.112;8.648;2022-12-18T13:24:57;101714.28;;;-2.03;69.10
72262;BME280;60173;52.112;8.648;2022-12-18T13:40:59;101676.66;;;-2.00;68.90
72262;BME280;60173;52.112;8.648;2022-12-18T13:43:45;101676.66;;;-2.00;68.61
72262;BME280;60173;52.112;8.648;2022-12-18T13:51:43;101655.34;;;-2.00;69.08
72262;BME280;60173;52.112;8.648;2022-12-18T13:54:33;101669.13;;;-2.11;69.23
72262;BME280;60173;52.112;8.648;2022-12-18T13:57:02;101665.09;;;-2.07;69.20
72262;BME280;60173;52.112;8.648;2022-12-18T13:59:39;101666.47;;;-2.11;69.55
72262;BME280;60173;52.112;8.648;2022-12-18T14:02:13;101663.91;;;-2.19;69.82
72262;BME280;60173;52.112;8.648;2022-12-18T14:04:40;101660.97;;;-2.24;70.19
72262;BME280;60173;52.112;8.648;2022-12-18T14:07:12;101665.66;;;-2.27;70.44
72262;BME280;60173;52.112;8.648;2022-12-18T14:09:43;101655.00;;;-2.27;70.12
72262;BME280;60173;52.112;8.648;2022-12-18T14:12:19;101652.81;;;-2.08;69.71
72262;BME280;60173;52.112;8.648;2022-12-18T14:14:49;101662.53;;;-2.15;69.57
72262;BME280;60173;52.112;8.648;2022-12-18T14:17:20;101661.53;;;-2.29;70.16
72262;BME280;60173;52.112;8.648;2022-12-18T14:19:51;101658.78;;;-2.21;69.69
72262;BME280;60173;52.112;8.648;2022-12-18T14:22:25;101661.63;;;-2.22;69.79
72262;BME280;60173;52.112;8.648;2022-12-18T14:25:26;101661.25;;;-2.19;69.52
72262;BME280;60173;52.112;8.648;2022-12-18T14:30:41;101668.50;;;-2.13;69.23
72262;BME280;60173;52.112;8.648;2022-12-18T14:35:42;101655.28;;;-2.21;70.13
72262;BME280;60173;52.112;8.648;2022-12-18T14:40:42;101656.56;;;-2.17;69.56
72262;BME280;60173;52.112;8.648;2022-12-18T14:43:12;101644.56;;;-2.13;69.23
72262;BME280;60173;52.112;8.648;2022-12-18T14:45:42;101637.09;;;-2.18;69.38
72262;BME280;60173;52.112;8.648;2022-12-18T14:48:18;101643.25;;;-2.17;69.25